createdAt,value
2023-09-15T00:00:36.221Z,10.81
2023-09-15T00:01:36.316Z,10.78
2023-09-15T00:02:36.209Z,10.76
2023-09-15T00:03:36.207Z,10.76
2023-09-15T00:04:36.224Z,10.73
2023-09-15T00:05:36.179Z,10.73
2023-09-15T00:06:36.210Z,10.73
2023-09-15T00:07:36.144Z,10.71
2023-09-15T00:08:36.128Z,10.71
2023-09-15T00:09:36.117Z,10.73
2023-09-15T00:10:36.118Z,10.74
2023-09-15T00:11:36.177Z,10.74
2023-09-15T00:12:36.090Z,10.73
2023-09-15T00:13:36.083Z,10.74
2023-09-15T00:14:36.050Z,10.73
2023-09-15T00:15:36.085Z,10.74
2023-09-15T00:16:38.831Z,10.74
2023-09-15T00:17:36.047Z,10.73
2023-09-15T00:18:36.005Z,10.71
2023-09-15T00:19:35.979Z,10.73
2023-09-15T00:20:35.952Z,10.73
2023-09-15T00:21:35.943Z,10.71
2023-09-15T00:22:35.930Z,10.71
2023-09-15T00:23:35.964Z,10.71
2023-09-15T00:24:35.922Z,10.71
2023-09-15T00:25:35.923Z,10.68
2023-09-15T00:26:35.890Z,10.68
2023-09-15T00:27:35.921Z,10.67
2023-09-15T00:28:35.874Z,10.66
2023-09-15T00:29:35.866Z,10.66
2023-09-15T00:30:36.781Z,10.64
2023-09-15T00:31:35.837Z,10.61
2023-09-15T00:32:35.846Z,10.61
2023-09-15T00:33:35.861Z,10.61
2023-09-15T00:34:35.771Z,10.61
2023-09-15T00:35:35.775Z,10.60
2023-09-15T00:36:35.774Z,10.59
2023-09-15T00:37:35.758Z,10.60
2023-09-15T00:38:35.720Z,10.59
2023-09-15T00:39:35.736Z,10.61
2023-09-15T00:40:35.739Z,10.63
2023-09-15T00:41:35.692Z,10.67
2023-09-15T00:42:35.666Z,10.70
2023-09-15T00:43:35.672Z,10.74
2023-09-15T00:44:35.657Z,10.81
2023-09-15T00:45:35.638Z,10.84
2023-09-15T00:46:35.689Z,10.86
2023-09-15T00:47:35.643Z,10.89
2023-09-15T00:48:35.639Z,10.92
2023-09-15T00:49:35.594Z,10.86
2023-09-15T00:50:35.601Z,10.84
2023-09-15T00:51:35.568Z,10.82
2023-09-15T00:52:35.619Z,10.79
2023-09-15T00:53:35.529Z,10.78
2023-09-15T00:54:35.513Z,10.76
2023-09-15T00:55:35.619Z,10.73
2023-09-15T00:56:35.508Z,10.71
2023-09-15T00:57:35.516Z,10.70
2023-09-15T00:58:35.469Z,10.67
2023-09-15T00:59:35.466Z,10.64
2023-09-15T01:00:35.443Z,10.60
2023-09-15T01:01:35.602Z,10.55
2023-09-15T01:02:35.522Z,10.48
2023-09-15T01:03:35.527Z,10.42
2023-09-15T01:04:35.400Z,10.42
2023-09-15T01:05:35.424Z,10.41
2023-09-15T01:06:35.384Z,10.40
2023-09-15T01:07:35.389Z,10.42
2023-09-15T01:08:35.350Z,10.44
2023-09-15T01:09:35.348Z,10.44
2023-09-15T01:10:35.330Z,10.45
2023-09-15T01:11:35.327Z,10.44
2023-09-15T01:12:35.309Z,10.44
2023-09-15T01:13:35.323Z,10.44
2023-09-15T01:14:35.265Z,10.44
2023-09-15T01:15:35.320Z,10.42
2023-09-15T01:16:35.397Z,10.45
2023-09-15T01:17:35.251Z,10.44
2023-09-15T01:18:35.255Z,10.45
2023-09-15T01:19:35.253Z,10.45
2023-09-15T01:20:35.197Z,10.42
2023-09-15T01:21:35.198Z,10.41
2023-09-15T01:22:35.152Z,10.41
2023-09-15T01:23:35.201Z,10.41
2023-09-15T01:24:35.155Z,10.42
2023-09-15T01:25:35.160Z,10.44
2023-09-15T01:26:35.092Z,10.44
2023-09-15T01:27:35.116Z,10.44
2023-09-15T01:28:35.083Z,10.42
2023-09-15T01:29:35.086Z,10.41
2023-09-15T01:30:35.055Z,10.41
2023-09-15T01:31:35.144Z,10.40
2023-09-15T01:32:35.181Z,10.40
2023-09-15T01:33:35.006Z,10.42
2023-09-15T01:34:34.991Z,10.41
2023-09-15T01:35:34.989Z,10.41
2023-09-15T01:36:35.000Z,10.40
2023-09-15T01:37:34.957Z,10.38
2023-09-15T01:38:34.971Z,10.38
2023-09-15T01:39:34.951Z,10.41
2023-09-15T01:40:34.953Z,10.40
2023-09-15T01:41:34.944Z,10.40
2023-09-15T01:42:34.898Z,10.38
2023-09-15T01:43:34.895Z,10.38
2023-09-15T01:44:34.890Z,10.38
2023-09-15T01:45:34.908Z,10.34
2023-09-15T01:46:34.886Z,10.36
2023-09-15T01:47:34.891Z,10.34
2023-09-15T01:48:34.844Z,10.34
2023-09-15T01:49:34.807Z,10.34
2023-09-15T01:50:34.785Z,10.36
2023-09-15T01:51:34.778Z,10.34
2023-09-15T01:52:34.841Z,10.34
2023-09-15T01:53:34.774Z,10.34
2023-09-15T01:54:34.754Z,10.32
2023-09-15T01:55:34.758Z,10.32
2023-09-15T01:56:34.726Z,10.30
2023-09-15T01:57:34.745Z,10.29
2023-09-15T01:58:34.712Z,10.27
2023-09-15T01:59:34.695Z,10.26
2023-09-15T02:00:34.677Z,10.26
2023-09-15T02:01:34.749Z,10.25
2023-09-15T02:02:34.718Z,10.23
2023-09-15T02:03:34.666Z,10.23
2023-09-15T02:04:34.602Z,10.20
2023-09-15T02:05:34.595Z,10.17
2023-09-15T02:06:34.605Z,10.15
2023-09-15T02:07:34.571Z,10.17
2023-09-15T02:08:34.560Z,10.15
2023-09-15T02:09:34.574Z,10.17
2023-09-15T02:10:34.542Z,10.18
2023-09-15T02:11:34.522Z,10.18
2023-09-15T02:12:34.505Z,10.20
2023-09-15T02:13:34.497Z,10.18
2023-09-15T02:14:34.495Z,10.20
2023-09-15T02:15:34.530Z,10.20
2023-09-15T02:16:34.532Z,10.18
2023-09-15T02:17:34.483Z,10.20
2023-09-15T02:18:34.425Z,10.22
2023-09-15T02:19:34.462Z,10.22
2023-09-15T02:20:34.432Z,10.22
2023-09-15T02:21:34.419Z,10.20
2023-09-15T02:22:34.393Z,10.20
2023-09-15T02:23:34.399Z,10.22
2023-09-15T02:24:34.368Z,10.22
2023-09-15T02:25:34.365Z,10.20
2023-09-15T02:26:34.382Z,10.18
2023-09-15T02:27:34.333Z,10.22
2023-09-15T02:28:34.320Z,10.22
2023-09-15T02:29:34.303Z,10.20
2023-09-15T02:30:34.314Z,10.20
2023-09-15T02:31:34.352Z,10.22
2023-09-15T02:32:34.291Z,10.20
2023-09-15T02:33:34.280Z,10.17
2023-09-15T02:34:34.219Z,10.15
2023-09-15T02:35:35.162Z,10.14
2023-09-15T02:36:34.221Z,10.12
2023-09-15T02:37:34.231Z,10.12
2023-09-15T02:38:34.170Z,10.12
2023-09-15T02:39:34.191Z,10.11
2023-09-15T02:40:34.139Z,10.07
2023-09-15T02:41:34.975Z,10.04
2023-09-15T02:42:34.128Z,10.01
2023-09-15T02:43:34.124Z,9.97
2023-09-15T02:44:34.097Z,9.96
2023-09-15T02:45:34.108Z,9.91
2023-09-15T02:46:34.165Z,9.91
2023-09-15T02:47:34.087Z,9.90
2023-09-15T02:48:34.060Z,9.90
2023-09-15T02:49:34.058Z,9.91
2023-09-15T02:50:34.012Z,9.90
2023-09-15T02:51:34.026Z,9.91
2023-09-15T02:52:34.021Z,9.91
2023-09-15T02:53:33.979Z,9.93
2023-09-15T02:54:33.972Z,9.94
2023-09-15T02:55:33.991Z,9.96
2023-09-15T02:56:33.957Z,9.94
2023-09-15T02:57:33.933Z,9.96
2023-09-15T02:58:33.949Z,9.96
2023-09-15T02:59:33.932Z,9.96
2023-09-15T03:00:33.956Z,9.94
2023-09-15T03:01:33.951Z,9.94
2023-09-15T03:02:33.949Z,9.94
2023-09-15T03:03:33.913Z,9.93
2023-09-15T03:04:33.827Z,9.90
2023-09-15T03:05:33.845Z,9.89
2023-09-15T03:06:33.830Z,9.86
2023-09-15T03:07:33.824Z,9.84
2023-09-15T03:08:33.775Z,9.84
2023-09-15T03:09:33.780Z,9.84
2023-09-15T03:10:33.786Z,9.81
2023-09-15T03:11:33.764Z,9.81
2023-09-15T03:12:33.743Z,9.79
2023-09-15T03:13:33.742Z,9.76
2023-09-15T03:14:33.723Z,9.76
2023-09-15T03:15:33.715Z,9.75
2023-09-15T03:16:33.846Z,9.75
2023-09-15T03:17:33.814Z,9.74
2023-09-15T03:18:33.682Z,9.75
2023-09-15T03:19:33.676Z,9.75
2023-09-15T03:20:33.640Z,9.75
2023-09-15T03:21:33.643Z,9.83
2023-09-15T03:22:33.623Z,9.86
2023-09-15T03:23:33.630Z,9.89
2023-09-15T03:24:33.610Z,9.89
2023-09-15T03:25:33.608Z,9.90
2023-09-15T03:26:33.557Z,9.89
2023-09-15T03:27:33.549Z,9.89
2023-09-15T03:28:33.540Z,9.86
2023-09-15T03:29:33.531Z,9.84
2023-09-15T03:30:33.556Z,9.83
2023-09-15T03:31:33.629Z,9.83
2023-09-15T03:32:33.540Z,9.84
2023-09-15T03:33:33.487Z,9.81
2023-09-15T03:34:33.466Z,9.81
2023-09-15T03:35:33.452Z,9.79
2023-09-15T03:36:33.422Z,9.79
2023-09-15T03:37:33.509Z,9.78
2023-09-15T03:38:33.424Z,9.78
2023-09-15T03:39:33.400Z,9.78
2023-09-15T03:40:33.370Z,9.78
2023-09-15T03:41:33.363Z,9.76
2023-09-15T03:42:33.379Z,9.76
2023-09-15T03:43:33.379Z,9.74
2023-09-15T03:44:33.348Z,9.72
2023-09-15T03:45:33.393Z,9.72
2023-09-15T03:46:33.413Z,9.71
2023-09-15T03:47:33.364Z,9.71
2023-09-15T03:48:33.327Z,9.72
2023-09-15T03:49:33.325Z,9.71
2023-09-15T03:50:33.377Z,9.72
2023-09-15T03:51:33.343Z,9.71
2023-09-15T03:52:33.266Z,9.72
2023-09-15T03:53:33.227Z,9.72
2023-09-15T03:54:33.219Z,9.74
2023-09-15T03:55:33.173Z,9.72
2023-09-15T03:56:33.184Z,9.72
2023-09-15T03:57:33.163Z,9.71
2023-09-15T03:58:33.181Z,9.71
2023-09-15T03:59:33.128Z,9.69
2023-09-15T04:00:33.130Z,9.68
2023-09-15T04:01:33.210Z,9.68
2023-09-15T04:02:33.107Z,9.69
2023-09-15T04:03:33.079Z,9.66
2023-09-15T04:04:33.135Z,9.65
2023-09-15T04:05:33.062Z,9.65
2023-09-15T04:06:33.088Z,9.61
2023-09-15T04:07:33.141Z,9.61
2023-09-15T04:08:33.027Z,9.58
2023-09-15T04:09:33.016Z,9.58
2023-09-15T04:10:33.074Z,9.58
2023-09-15T04:11:32.963Z,9.57
2023-09-15T04:12:32.996Z,9.57
2023-09-15T04:13:32.964Z,9.57
2023-09-15T04:14:32.956Z,9.56
2023-09-15T04:15:32.926Z,9.57
2023-09-15T04:16:32.999Z,9.57
2023-09-15T04:17:32.940Z,9.58
2023-09-15T04:18:32.888Z,9.58
2023-09-15T04:19:33.077Z,9.57
2023-09-15T04:20:45.204Z,9.56
2023-09-15T04:21:32.846Z,9.56
2023-09-15T04:22:32.875Z,9.51
2023-09-15T04:23:32.818Z,9.53
2023-09-15T04:24:32.827Z,9.53
2023-09-15T04:25:32.809Z,9.51
2023-09-15T04:26:32.799Z,9.51
2023-09-15T04:27:32.793Z,9.51
2023-09-15T04:28:32.793Z,9.51
2023-09-15T04:29:32.739Z,9.51
2023-09-15T04:30:32.736Z,9.50
2023-09-15T04:31:32.836Z,9.48
2023-09-15T04:32:32.737Z,9.50
2023-09-15T04:33:32.699Z,9.48
2023-09-15T04:34:32.696Z,9.48
2023-09-15T04:35:32.677Z,9.50
2023-09-15T04:36:32.668Z,9.51
2023-09-15T04:37:32.660Z,9.53
2023-09-15T04:38:32.631Z,9.51
2023-09-15T04:39:32.616Z,9.56
2023-09-15T04:40:32.623Z,9.57
2023-09-15T04:41:32.591Z,9.58
2023-09-15T04:42:32.604Z,9.61
2023-09-15T04:43:32.574Z,9.65
2023-09-15T04:44:32.566Z,9.71
2023-09-15T04:45:32.545Z,9.74
2023-09-15T04:46:32.612Z,9.78
2023-09-15T04:47:32.562Z,9.81
2023-09-15T04:48:32.500Z,9.84
2023-09-15T04:49:32.502Z,9.84
2023-09-15T04:50:32.475Z,9.89
2023-09-15T04:51:32.484Z,9.89
2023-09-15T04:52:32.444Z,9.93
2023-09-15T04:53:32.463Z,9.96
2023-09-15T04:54:32.435Z,9.97
2023-09-15T04:55:32.431Z,10.02
2023-09-15T04:56:32.416Z,10.04
2023-09-15T04:57:32.404Z,10.07
2023-09-15T04:58:32.393Z,10.09
2023-09-15T04:59:32.376Z,10.14
2023-09-15T05:00:32.366Z,10.15
2023-09-15T05:01:32.473Z,10.14
2023-09-15T05:02:32.331Z,10.17
2023-09-15T05:03:32.415Z,10.15
2023-09-15T05:04:32.390Z,10.17
2023-09-15T05:05:32.282Z,10.18
2023-09-15T05:06:32.283Z,10.17
2023-09-15T05:07:32.283Z,10.15
2023-09-15T05:08:32.268Z,10.17
2023-09-15T05:09:32.243Z,10.18
2023-09-15T05:10:32.300Z,10.20
2023-09-15T05:11:32.197Z,10.18
2023-09-15T05:12:32.191Z,10.22
2023-09-15T05:13:32.222Z,10.25
2023-09-15T05:14:34.013Z,10.26
2023-09-15T05:15:32.152Z,10.27
2023-09-15T05:16:32.285Z,10.27
2023-09-15T05:17:32.180Z,10.29
2023-09-15T05:18:32.106Z,10.34
2023-09-15T05:19:32.151Z,10.38
2023-09-15T05:20:32.099Z,10.40
2023-09-15T05:21:32.079Z,10.44
2023-09-15T05:22:32.147Z,10.47
2023-09-15T05:23:32.063Z,10.53
2023-09-15T05:24:32.062Z,10.60
2023-09-15T05:25:32.074Z,10.64
2023-09-15T05:26:32.037Z,10.68
2023-09-15T05:27:32.011Z,10.71
2023-09-15T05:28:32.107Z,10.79
2023-09-15T05:29:31.959Z,10.81
2023-09-15T05:30:31.953Z,10.84
2023-09-15T05:31:32.016Z,10.86
2023-09-15T05:32:31.953Z,10.89
2023-09-15T05:33:31.916Z,10.97
2023-09-15T05:34:31.924Z,11.00
2023-09-15T05:35:31.889Z,11.04
2023-09-15T05:36:31.897Z,11.07
2023-09-15T05:37:31.939Z,11.10
2023-09-15T05:38:31.899Z,11.11
2023-09-15T05:39:31.830Z,11.18
2023-09-15T05:40:31.847Z,11.22
2023-09-15T05:41:31.844Z,11.25
2023-09-15T05:42:31.817Z,11.29
2023-09-15T05:43:31.865Z,11.35
2023-09-15T05:44:31.775Z,11.40
2023-09-15T05:45:31.760Z,11.43
2023-09-15T05:46:31.820Z,11.49
2023-09-15T05:47:31.805Z,11.54
2023-09-15T05:48:31.740Z,11.55
2023-09-15T05:49:31.786Z,11.57
2023-09-15T05:50:31.696Z,11.62
2023-09-15T05:51:31.701Z,11.65
2023-09-15T05:52:31.720Z,11.72
2023-09-15T05:53:31.665Z,11.78
2023-09-15T05:54:31.652Z,11.78
2023-09-15T05:55:31.682Z,11.83
2023-09-15T05:56:31.641Z,11.86
2023-09-15T05:57:31.616Z,11.94
2023-09-15T05:58:31.621Z,11.96
2023-09-15T05:59:31.579Z,12.01
2023-09-15T06:00:31.579Z,12.04
2023-09-15T06:01:31.729Z,12.09
2023-09-15T06:02:31.576Z,12.13
2023-09-15T06:03:31.618Z,12.17
2023-09-15T06:04:31.579Z,12.21
2023-09-15T06:05:31.507Z,12.28
2023-09-15T06:06:31.503Z,12.32
2023-09-15T06:07:31.598Z,12.35
2023-09-15T06:08:31.486Z,12.38
2023-09-15T06:09:31.463Z,12.42
2023-09-15T06:10:31.546Z,12.49
2023-09-15T06:11:31.424Z,12.54
2023-09-15T06:12:31.427Z,12.57
2023-09-15T06:13:31.427Z,12.62
2023-09-15T06:14:31.398Z,12.65
2023-09-15T06:15:31.387Z,12.68
2023-09-15T06:16:31.427Z,12.72
2023-09-15T06:17:31.382Z,12.78
2023-09-15T06:18:31.364Z,12.83
2023-09-15T06:19:31.340Z,12.87
2023-09-15T06:20:31.328Z,12.92
2023-09-15T06:21:31.390Z,12.96
2023-09-15T06:22:31.351Z,13.03
2023-09-15T06:23:31.329Z,13.05
2023-09-15T06:24:31.266Z,13.11
2023-09-15T06:25:31.284Z,13.14
2023-09-15T06:26:31.232Z,13.20
2023-09-15T06:27:31.217Z,13.22
2023-09-15T06:28:31.260Z,13.26
2023-09-15T06:29:31.242Z,13.29
2023-09-15T06:30:31.184Z,13.36
2023-09-15T06:31:31.276Z,13.39
2023-09-15T06:32:31.187Z,13.45
2023-09-15T06:33:31.178Z,13.48
2023-09-15T06:34:31.179Z,13.54
2023-09-15T06:35:31.106Z,13.57
2023-09-15T06:36:31.117Z,13.63
2023-09-15T06:37:31.124Z,13.67
2023-09-15T06:38:31.075Z,13.73
2023-09-15T06:39:31.086Z,13.77
2023-09-15T06:40:31.071Z,13.81
2023-09-15T06:41:31.061Z,13.85
2023-09-15T06:42:31.037Z,13.89
2023-09-15T06:43:31.043Z,13.95
2023-09-15T06:44:31.010Z,13.99
2023-09-15T06:45:31.022Z,14.03
2023-09-15T06:46:31.085Z,14.09
2023-09-15T06:47:31.032Z,14.14
2023-09-15T06:48:30.977Z,14.17
2023-09-15T06:49:30.963Z,14.24
2023-09-15T06:50:30.957Z,14.27
2023-09-15T06:51:30.920Z,14.32
2023-09-15T06:52:30.917Z,14.37
2023-09-15T06:53:30.891Z,14.42
2023-09-15T06:54:30.885Z,14.46
2023-09-15T06:55:30.943Z,14.51
2023-09-15T06:56:30.858Z,14.57
2023-09-15T06:57:30.895Z,14.60
2023-09-15T06:58:30.855Z,14.64
2023-09-15T06:59:30.803Z,14.69
2023-09-15T07:00:30.810Z,14.72
2023-09-15T07:01:30.806Z,14.77
2023-09-15T07:02:30.817Z,14.81
2023-09-15T07:03:30.746Z,14.84
2023-09-15T07:04:30.878Z,14.88
2023-09-15T07:05:30.721Z,14.92
2023-09-15T07:06:30.737Z,14.95
2023-09-15T07:07:30.770Z,15.01
2023-09-15T07:08:30.710Z,15.07
2023-09-15T07:09:30.667Z,15.09
2023-09-15T07:10:30.682Z,15.13
2023-09-15T07:11:30.684Z,15.17
2023-09-15T07:12:30.656Z,15.20
2023-09-15T07:13:30.639Z,15.25
2023-09-15T07:14:30.628Z,15.29
2023-09-15T07:15:30.604Z,15.32
2023-09-15T07:16:30.720Z,15.38
2023-09-15T07:17:30.772Z,15.43
2023-09-15T07:18:30.578Z,15.46
2023-09-15T07:19:30.640Z,15.49
2023-09-15T07:20:30.537Z,15.53
2023-09-15T07:21:30.532Z,15.57
2023-09-15T07:22:30.576Z,15.60
2023-09-15T07:23:30.513Z,15.65
2023-09-15T07:24:30.485Z,15.69
2023-09-15T07:25:30.473Z,15.71
2023-09-15T07:26:30.455Z,15.72
2023-09-15T07:27:30.455Z,15.75
2023-09-15T07:28:30.493Z,15.78
2023-09-15T07:29:30.407Z,15.80
2023-09-15T07:30:30.404Z,15.83
2023-09-15T07:31:30.440Z,15.86
2023-09-15T07:32:30.418Z,15.90
2023-09-15T07:33:30.393Z,15.92
2023-09-15T07:34:30.385Z,15.97
2023-09-15T07:35:30.327Z,16.01
2023-09-15T07:36:30.329Z,16.07
2023-09-15T07:37:30.324Z,16.11
2023-09-15T07:38:32.078Z,16.14
2023-09-15T07:39:30.302Z,16.17
2023-09-15T07:40:30.351Z,16.23
2023-09-15T07:41:30.273Z,16.27
2023-09-15T07:42:30.241Z,16.31
2023-09-15T07:43:30.301Z,16.34
2023-09-15T07:44:30.231Z,16.39
2023-09-15T07:45:30.236Z,16.43
2023-09-15T07:46:30.318Z,16.46
2023-09-15T07:47:30.226Z,16.52
2023-09-15T07:48:30.174Z,16.53
2023-09-15T07:49:30.206Z,16.58
2023-09-15T07:50:30.175Z,16.61
2023-09-15T07:51:30.148Z,16.64
2023-09-15T07:52:30.176Z,16.68
2023-09-15T07:53:30.114Z,16.70
2023-09-15T07:54:30.103Z,16.68
2023-09-15T07:55:30.121Z,16.71
2023-09-15T07:56:30.081Z,16.76
2023-09-15T07:57:30.069Z,16.79
2023-09-15T07:58:30.174Z,16.82
2023-09-15T07:59:30.043Z,16.86
2023-09-15T08:00:30.022Z,16.89
2023-09-15T08:01:30.072Z,16.96
2023-09-15T08:02:30.032Z,16.96
2023-09-15T08:03:30.003Z,17.01
2023-09-15T08:04:30.151Z,17.03
2023-09-15T08:05:29.974Z,17.03
2023-09-15T08:06:29.948Z,17.07
2023-09-15T08:07:30.001Z,17.12
2023-09-15T08:08:29.947Z,17.18
2023-09-15T08:09:29.896Z,17.23
2023-09-15T08:10:29.924Z,17.28
2023-09-15T08:11:29.889Z,17.31
2023-09-15T08:12:29.895Z,17.33
2023-09-15T08:13:29.909Z,17.37
2023-09-15T08:14:29.867Z,17.40
2023-09-15T08:15:29.845Z,17.44
2023-09-15T08:16:29.843Z,17.46
2023-09-15T08:17:34.204Z,17.46
2023-09-15T08:18:29.872Z,17.51
2023-09-15T08:19:29.808Z,17.52
2023-09-15T08:20:29.772Z,17.55
2023-09-15T08:21:29.762Z,17.56
2023-09-15T08:22:29.777Z,17.59
2023-09-15T08:23:29.772Z,17.59
2023-09-15T08:24:29.718Z,17.64
2023-09-15T08:25:29.756Z,17.70
2023-09-15T08:26:36.125Z,17.72
2023-09-15T08:27:29.886Z,17.75
2023-09-15T08:28:29.723Z,17.81
2023-09-15T08:29:29.646Z,17.87
2023-09-15T08:30:29.616Z,17.87
2023-09-15T08:31:29.686Z,17.92
2023-09-15T08:32:29.612Z,17.96
2023-09-15T08:33:29.663Z,18.00
2023-09-15T08:34:29.604Z,18.05
2023-09-15T08:35:29.623Z,18.11
2023-09-15T08:36:29.556Z,18.11
2023-09-15T08:37:29.578Z,18.14
2023-09-15T08:38:29.529Z,18.18
2023-09-15T08:39:29.553Z,18.23
2023-09-15T08:40:29.525Z,18.25
2023-09-15T08:41:29.478Z,18.26
2023-09-15T08:42:29.508Z,18.29
2023-09-15T08:43:31.047Z,18.35
2023-09-15T08:44:29.450Z,18.41
2023-09-15T08:45:29.434Z,18.44
2023-09-15T08:46:29.548Z,18.48
2023-09-15T08:47:29.402Z,18.55
2023-09-15T08:48:29.413Z,18.60
2023-09-15T08:49:29.400Z,18.63
2023-09-15T08:50:29.391Z,18.69
2023-09-15T08:51:29.368Z,18.73
2023-09-15T08:52:29.423Z,18.76
2023-09-15T08:53:29.356Z,18.80
2023-09-15T08:54:29.315Z,18.85
2023-09-15T08:55:29.335Z,18.90
2023-09-15T08:56:29.310Z,18.92
2023-09-15T08:57:29.284Z,18.92
2023-09-15T08:58:29.321Z,18.94
2023-09-15T08:59:29.249Z,18.95
2023-09-15T09:00:29.260Z,18.99
2023-09-15T09:01:29.296Z,19.06
2023-09-15T09:02:29.326Z,19.10
2023-09-15T09:03:29.295Z,19.11
2023-09-15T09:04:29.341Z,19.13
2023-09-15T09:05:29.171Z,19.18
2023-09-15T09:06:29.167Z,19.22
2023-09-15T09:07:29.226Z,19.26
2023-09-15T09:08:29.149Z,19.31
2023-09-15T09:09:29.140Z,19.33
2023-09-15T09:10:29.176Z,19.39
2023-09-15T09:11:29.111Z,19.37
2023-09-15T09:12:29.108Z,19.41
2023-09-15T09:13:42.597Z,19.46
2023-09-15T09:14:29.062Z,19.48
2023-09-15T09:15:29.064Z,19.54
2023-09-15T09:16:29.237Z,19.55
2023-09-15T09:17:29.018Z,19.58
2023-09-15T09:18:29.045Z,19.61
2023-09-15T09:19:29.064Z,19.62
2023-09-15T09:20:28.990Z,19.66
2023-09-15T09:21:28.979Z,19.73
2023-09-15T09:22:29.187Z,19.76
2023-09-15T09:23:28.938Z,19.80
2023-09-15T09:24:28.965Z,19.86
2023-09-15T09:25:28.967Z,19.92
2023-09-15T09:26:28.913Z,19.98
2023-09-15T09:27:28.888Z,20.02
2023-09-15T09:28:28.926Z,20.05
2023-09-15T09:29:28.886Z,20.08
2023-09-15T09:30:28.851Z,20.10
2023-09-15T09:31:28.889Z,20.14
2023-09-15T09:32:28.847Z,20.14
2023-09-15T09:33:28.834Z,20.16
2023-09-15T09:34:46.180Z,20.16
2023-09-15T09:35:28.849Z,20.20
2023-09-15T09:36:28.785Z,20.23
2023-09-15T09:37:28.755Z,20.23
2023-09-15T09:38:28.738Z,20.23
2023-09-15T09:39:28.757Z,20.28
2023-09-15T09:40:28.740Z,20.32
2023-09-15T09:41:30.269Z,20.35
2023-09-15T09:42:28.726Z,20.36
2023-09-15T09:43:28.694Z,20.41
2023-09-15T09:44:28.688Z,20.48
2023-09-15T09:45:28.719Z,20.51
2023-09-15T09:46:28.729Z,20.55
2023-09-15T09:47:28.698Z,20.59
2023-09-15T09:48:28.683Z,20.66
2023-09-15T09:49:28.598Z,20.69
2023-09-15T09:50:28.621Z,20.72
2023-09-15T09:51:28.625Z,20.76
2023-09-15T09:52:28.557Z,20.82
2023-09-15T09:53:28.549Z,20.85
2023-09-15T09:54:28.553Z,20.88
2023-09-15T09:55:28.536Z,20.92
2023-09-15T09:56:28.509Z,20.97
2023-09-15T09:57:28.549Z,21.03
2023-09-15T09:58:28.482Z,21.06
2023-09-15T09:59:28.485Z,21.09
2023-09-15T10:00:28.504Z,21.10
2023-09-15T10:01:28.532Z,21.13
2023-09-15T10:02:28.513Z,21.16
2023-09-15T10:03:28.546Z,21.22
2023-09-15T10:04:28.406Z,21.24
2023-09-15T10:05:28.409Z,21.24
2023-09-15T10:06:28.415Z,21.22
2023-09-15T10:07:28.368Z,21.25
2023-09-15T10:08:28.378Z,21.27
2023-09-15T10:09:28.414Z,21.28
2023-09-15T10:10:28.344Z,21.32
2023-09-15T10:11:28.337Z,21.35
2023-09-15T10:12:28.339Z,21.35
2023-09-15T10:13:28.317Z,21.40
2023-09-15T10:14:28.312Z,21.47
2023-09-15T10:15:28.392Z,21.50
2023-09-15T10:16:28.286Z,21.52
2023-09-15T10:17:28.303Z,21.37
2023-09-15T10:18:28.270Z,21.37
2023-09-15T10:19:28.233Z,21.46
2023-09-15T10:20:28.215Z,21.54
2023-09-15T10:21:28.210Z,21.65
2023-09-15T10:22:28.179Z,21.74
2023-09-15T10:23:28.181Z,21.79
2023-09-15T10:24:28.279Z,21.84
2023-09-15T10:25:28.196Z,21.94
2023-09-15T10:26:28.133Z,21.98
2023-09-15T10:27:28.137Z,22.00
2023-09-15T10:28:42.048Z,21.99
2023-09-15T10:29:28.117Z,22.00
2023-09-15T10:30:28.116Z,21.98
2023-09-15T10:31:28.106Z,22.02
2023-09-15T10:32:28.068Z,22.06
2023-09-15T10:33:28.085Z,22.09
2023-09-15T10:34:28.026Z,22.15
2023-09-15T10:35:28.022Z,22.02
2023-09-15T10:36:28.032Z,22.10
2023-09-15T10:37:28.004Z,22.15
2023-09-15T10:38:27.980Z,22.12
2023-09-15T10:39:28.007Z,22.02
2023-09-15T10:40:27.947Z,21.91
2023-09-15T10:41:27.947Z,21.90
2023-09-15T10:42:27.998Z,21.98
2023-09-15T10:43:28.340Z,22.06
2023-09-15T10:44:27.915Z,22.14
2023-09-15T10:45:27.884Z,22.18
2023-09-15T10:46:27.875Z,22.21
2023-09-15T10:47:27.874Z,22.18
2023-09-15T10:48:27.866Z,22.20
2023-09-15T10:49:27.833Z,22.05
2023-09-15T10:50:28.013Z,21.98
2023-09-15T10:51:27.852Z,22.02
2023-09-15T10:52:27.786Z,22.07
2023-09-15T10:53:27.777Z,21.99
2023-09-15T10:54:27.835Z,22.07
2023-09-15T10:55:27.766Z,22.18
2023-09-15T10:56:27.739Z,22.22
2023-09-15T10:57:27.797Z,22.30
2023-09-15T10:58:27.699Z,22.39
2023-09-15T10:59:27.709Z,22.37
2023-09-15T11:00:27.743Z,22.43
2023-09-15T11:01:27.717Z,22.49
2023-09-15T11:02:27.715Z,22.51
2023-09-15T11:03:28.492Z,22.54
2023-09-15T11:04:27.615Z,22.55
2023-09-15T11:05:27.613Z,22.62
2023-09-15T11:06:27.638Z,22.70
2023-09-15T11:07:27.617Z,22.72
2023-09-15T11:08:27.600Z,22.68
2023-09-15T11:09:27.656Z,22.67
2023-09-15T11:10:27.573Z,22.67
2023-09-15T11:11:27.551Z,22.76
2023-09-15T11:12:27.577Z,22.73
2023-09-15T11:13:27.534Z,22.55
2023-09-15T11:14:27.551Z,22.58
2023-09-15T11:15:27.517Z,22.62
2023-09-15T11:16:29.052Z,22.68
2023-09-15T11:17:27.515Z,22.77
2023-09-15T11:18:27.457Z,22.82
2023-09-15T11:19:27.442Z,22.90
2023-09-15T11:20:27.426Z,22.97
2023-09-15T11:21:33.448Z,22.95
2023-09-15T11:22:27.394Z,22.86
2023-09-15T11:23:27.404Z,22.91
2023-09-15T11:24:27.400Z,22.98
2023-09-15T11:25:27.363Z,23.01
2023-09-15T11:26:28.659Z,23.04
2023-09-15T11:27:27.409Z,23.02
2023-09-15T11:28:27.323Z,22.92
2023-09-15T11:29:27.321Z,22.95
2023-09-15T11:30:27.310Z,22.97
2023-09-15T11:31:27.288Z,23.07
2023-09-15T11:32:27.271Z,23.15
2023-09-15T11:33:27.382Z,23.25
2023-09-15T11:34:27.400Z,23.32
2023-09-15T11:35:27.259Z,23.39
2023-09-15T11:36:27.277Z,23.48
2023-09-15T11:37:27.231Z,23.58
2023-09-15T11:38:27.199Z,23.66
2023-09-15T11:39:27.221Z,23.73
2023-09-15T11:40:27.183Z,23.76
2023-09-15T11:41:27.171Z,23.80
2023-09-15T11:42:27.181Z,23.73
2023-09-15T11:43:27.166Z,23.60
2023-09-15T11:44:27.144Z,23.53
2023-09-15T11:45:27.160Z,23.63
2023-09-15T11:46:27.228Z,23.53
2023-09-15T11:47:27.098Z,23.50
2023-09-15T11:48:27.073Z,23.68
2023-09-15T11:49:27.146Z,23.72
2023-09-15T11:50:27.048Z,23.65
2023-09-15T11:51:27.166Z,23.61
2023-09-15T11:52:27.015Z,23.58
2023-09-15T11:53:27.041Z,23.50
2023-09-15T11:54:27.254Z,23.38
2023-09-15T11:55:27.011Z,23.31
2023-09-15T11:56:26.966Z,23.40
2023-09-15T11:57:27.017Z,23.46
2023-09-15T11:58:26.931Z,23.54
2023-09-15T11:59:26.928Z,23.60
2023-09-15T12:00:27.082Z,23.69
2023-09-15T12:01:26.971Z,23.78
2023-09-15T12:02:26.936Z,23.80
2023-09-15T12:03:26.952Z,23.90
2023-09-15T12:04:27.028Z,23.94
2023-09-15T12:05:26.853Z,23.83
2023-09-15T12:06:26.864Z,23.83
2023-09-15T12:07:26.825Z,23.83
2023-09-15T12:08:26.808Z,23.72
2023-09-15T12:09:26.868Z,23.73
2023-09-15T12:10:26.834Z,23.73
2023-09-15T12:11:26.782Z,23.73
2023-09-15T12:12:26.806Z,23.76
2023-09-15T12:13:26.756Z,23.75
2023-09-15T12:14:26.767Z,23.55
2023-09-15T12:15:26.761Z,23.40
2023-09-15T12:16:26.776Z,23.39
2023-09-15T12:17:26.686Z,23.36
2023-09-15T12:18:26.688Z,23.20
2023-09-15T12:19:29.433Z,23.35
2023-09-15T12:20:26.676Z,23.35
2023-09-15T12:21:26.743Z,23.32
2023-09-15T12:22:26.625Z,23.28
2023-09-15T12:23:26.623Z,23.22
2023-09-15T12:24:26.678Z,23.15
2023-09-15T12:25:26.608Z,23.17
2023-09-15T12:26:26.606Z,23.09
2023-09-15T12:27:26.599Z,23.22
2023-09-15T12:28:26.585Z,23.23
2023-09-15T12:29:26.560Z,23.13
2023-09-15T12:30:26.602Z,23.05
2023-09-15T12:31:26.507Z,22.95
2023-09-15T12:32:26.517Z,22.97
2023-09-15T12:33:26.568Z,23.00
2023-09-15T12:34:26.537Z,23.00
2023-09-15T12:35:26.475Z,23.19
2023-09-15T12:36:26.476Z,23.33
2023-09-15T12:37:26.444Z,23.46
2023-09-15T12:38:26.434Z,23.58
2023-09-15T12:39:26.434Z,23.68
2023-09-15T12:40:26.421Z,23.76
2023-09-15T12:41:26.382Z,23.85
2023-09-15T12:42:26.423Z,23.97
2023-09-15T12:43:26.352Z,24.00
2023-09-15T12:44:26.414Z,24.06
2023-09-15T12:45:26.342Z,24.06
2023-09-15T12:46:26.440Z,24.18
2023-09-15T12:47:26.333Z,24.27
2023-09-15T12:48:26.357Z,24.31
2023-09-15T12:49:26.298Z,24.28
2023-09-15T12:50:26.293Z,24.22
2023-09-15T12:51:26.265Z,24.16
2023-09-15T12:52:26.259Z,23.98
2023-09-15T12:53:26.239Z,23.93
2023-09-15T12:54:26.282Z,23.97
2023-09-15T12:55:26.208Z,24.00
2023-09-15T12:56:26.242Z,24.02